Terminal Aerodrome Forecast
Issued by NWS

Home | Current Version | Previous Version | Text Only | Print | Product List | Glossary Off
Versions: 1 2 3 4 5 6 7 8 9 10 11 12 13 14 15 16 17

000
FTUS43 KABR 250820 AAA
TAFMBG
TAF AMD
KMBG 250820Z 2508/2606 05006KT P6SM OVC007
      TEMPO 2508/2510 -RA BKN008 OVC015
     FM251300 01008KT P6SM -RA OVC015
     FM251800 36009KT P6SM SCT025 BKN040 BKN120=

USA.gov is the U.S. government's official web portal to all federal, state and local government web resources and services.